Time;durP1;ratioP1;P1;durP2;ratioP2;P2;SDS_P1;SDS_P2;PMS_P1;PMS_P2;Temp;Humidity;BMP_temperature;BMP_pressure;BME280_temperature;BME280_humidity;BME280_pressure;Samples;Min_cycle;Max_cycle;Signal;HPM_P1;HPM_P2
2023/01/20 00:00:42;;;;;;;5.38;2.72;;;;;;;16.26;100.00;101039.50;2102771;28;20398;-74
2023/01/20 00:02:04;;;;;;;5.03;2.65;;;;;;;16.25;100.00;101032.41;2102504;28;20063;-75
2023/01/20 00:03:26;;;;;;;6.78;2.55;;;;;;;16.24;100.00;101016.41;2102529;28;20171;-74
2023/01/20 00:04:49;;;;;;;6.55;2.80;;;;;;;16.26;100.00;101022.63;2105425;28;20051;-74
2023/01/20 00:06:12;;;;;;;4.63;2.85;;;;;;;16.26;100.00;101009.31;2101855;28;20047;-74
2023/01/20 00:07:34;;;;;;;6.18;2.70;;;;;;;16.26;100.00;101007.53;2101071;28;20061;-74
2023/01/20 00:08:58;;;;;;;4.80;1.90;;;;;;;16.25;100.00;101003.09;2094586;28;20411;-74
2023/01/20 00:10:20;;;;;;;4.47;1.70;;;;;;;16.23;100.00;101006.66;2100314;28;20463;-74
2023/01/20 00:11:43;;;;;;;5.13;2.35;;;;;;;16.22;100.00;100996.88;2101401;28;20058;-73
2023/01/20 00:13:05;;;;;;;5.45;2.55;;;;;;;16.22;100.00;101004.88;2094505;28;20075;-74
2023/01/20 00:14:27;;;;;;;5.65;2.83;;;;;;;16.20;100.00;100986.25;2088201;28;20546;-74
2023/01/20 00:15:49;;;;;;;6.43;2.35;;;;;;;16.21;100.00;100987.16;2093286;28;20055;-74
2023/01/20 00:17:11;;;;;;;4.35;2.40;;;;;;;16.20;100.00;101001.34;2100089;28;20048;-75
2023/01/20 00:18:33;;;;;;;5.78;2.63;;;;;;;16.18;100.00;100973.81;2094235;28;20056;-74
2023/01/20 00:19:56;;;;;;;5.28;2.67;;;;;;;16.19;100.00;100976.50;2093869;28;20052;-73
2023/01/20 00:21:20;;;;;;;6.47;2.75;;;;;;;16.25;100.00;100986.22;2097796;28;20417;-73
2023/01/20 00:22:42;;;;;;;3.00;1.80;;;;;;;16.22;100.00;100965.81;2101898;28;20056;-73
2023/01/20 00:24:06;;;;;;;6.03;1.92;;;;;;;16.22;100.00;100975.56;2100433;28;20044;-71
2023/01/20 00:25:27;;;;;;;5.20;1.92;;;;;;;16.25;100.00;100986.22;2094153;28;20045;-74
2023/01/20 00:26:49;;;;;;;6.97;2.50;;;;;;;16.24;100.00;100982.69;2085513;28;20049;-73
2023/01/20 00:28:10;;;;;;;6.38;2.30;;;;;;;16.25;100.00;100981.78;2099921;28;20091;-74
2023/01/20 00:29:33;;;;;;;3.70;1.75;;;;;;;16.25;100.00;100964.91;2101534;28;20494;-74
2023/01/20 00:30:54;;;;;;;4.00;2.10;;;;;;;16.27;100.00;100982.69;2093096;28;20052;-74
2023/01/20 00:32:16;;;;;;;4.10;2.55;;;;;;;16.25;100.00;100989.78;2098675;28;20044;-74
2023/01/20 00:33:38;;;;;;;3.75;2.13;;;;;;;16.22;100.00;100988.88;2102204;28;20144;-73
2023/01/20 00:35:00;;;;;;;4.45;3.00;;;;;;;16.24;100.00;100976.47;2092446;28;20571;-73
2023/01/20 00:36:25;;;;;;;5.97;2.50;;;;;;;16.24;100.00;100988.00;2083510;28;20079;-74
2023/01/20 00:37:47;;;;;;;7.55;2.45;;;;;;;16.26;100.00;100974.69;2098844;28;20048;-74
2023/01/20 00:39:08;;;;;;;8.32;2.70;;;;;;;16.26;100.00;100962.25;2102091;28;20040;-72
2023/01/20 00:40:30;;;;;;;4.50;2.42;;;;;;;16.26;100.00;100977.34;2093836;28;20529;-74
2023/01/20 00:41:53;;;;;;;5.97;2.45;;;;;;;16.25;100.00;100988.88;2101737;28;20040;-74
2023/01/20 00:43:14;;;;;;;5.22;2.55;;;;;;;16.19;100.00;100980.94;2092811;28;20120;-74
2023/01/20 00:44:36;;;;;;;5.38;2.40;;;;;;;16.16;100.00;100989.81;2101431;28;20416;-74
2023/01/20 00:45:58;;;;;;;7.45;2.58;;;;;;;16.12;100.00;100985.38;2092475;28;20135;-74
2023/01/20 00:47:20;;;;;;;6.20;2.67;;;;;;;16.10;100.00;100971.19;2092211;28;20051;-74
2023/01/20 00:48:41;;;;;;;8.18;3.13;;;;;;;16.09;100.00;100957.88;2094148;28;20052;-74
2023/01/20 00:50:04;;;;;;;6.35;2.67;;;;;;;16.11;100.00;100977.41;2093819;28;20045;-74
2023/01/20 00:51:27;;;;;;;6.70;2.47;;;;;;;16.11;100.00;100977.41;2101585;28;20098;-74
2023/01/20 00:52:49;;;;;;;4.95;2.45;;;;;;;16.06;100.00;100982.75;2105111;28;20080;-74
2023/01/20 00:54:11;;;;;;;5.40;2.30;;;;;;;16.06;100.00;100988.06;2101714;28;20513;-74
2023/01/20 00:55:34;;;;;;;5.88;2.35;;;;;;;16.05;100.00;100978.31;2093930;28;20052;-73
2023/01/20 00:56:56;;;;;;;4.00;2.30;;;;;;;16.06;100.00;100974.75;2091549;28;20119;-74
2023/01/20 00:58:19;;;;;;;5.60;2.15;;;;;;;16.08;100.00;100982.75;2090135;28;20049;-74
2023/01/20 00:59:41;;;;;;;3.85;2.17;;;;;;;16.09;100.00;100956.09;2091502;28;20087;-74
2023/01/20 01:01:04;;;;;;;4.53;1.90;;;;;;;16.13;100.00;100967.63;2099275;28;20401;-74
2023/01/20 01:02:26;;;;;;;3.88;1.98;;;;;;;16.15;100.00;100973.81;2095633;28;20113;-74
2023/01/20 01:03:51;;;;;;;3.63;2.20;;;;;;;16.17;100.00;100974.72;2085912;28;20522;-74
2023/01/20 01:05:12;;;;;;;5.43;2.30;;;;;;;16.18;100.00;100980.03;2091243;28;20049;-74
2023/01/20 01:06:36;;;;;;;4.30;2.42;;;;;;;16.18;100.00;100980.03;2096111;28;20052;-73
2023/01/20 01:07:57;;;;;;;6.15;2.08;;;;;;;16.19;100.00;100984.47;2102512;28;20107;-74
2023/01/20 01:09:20;;;;;;;4.97;2.17;;;;;;;16.20;100.00;100978.25;2102180;28;20043;-74
2023/01/20 01:10:41;;;;;;;4.38;2.15;;;;;;;16.20;100.00;100983.59;2096404;28;20494;-73
2023/01/20 01:12:04;;;;;;;3.90;1.80;;;;;;;16.21;100.00;100992.47;2095931;28;20048;-73
2023/01/20 01:13:25;;;;;;;4.57;2.25;;;;;;;16.21;100.00;100985.34;2102354;28;20267;-74
2023/01/20 01:14:47;;;;;;;4.53;1.85;;;;;;;16.21;100.00;100997.78;2101653;28;20048;-74
2023/01/20 01:16:11;;;;;;;3.85;2.47;;;;;;;16.22;100.00;100987.09;2099540;28;20090;-73
2023/01/20 01:17:34;;;;;;;5.55;2.40;;;;;;;16.22;100.00;100983.56;2095684;28;20041;-73
2023/01/20 01:18:56;;;;;;;3.75;2.22;;;;;;;16.20;100.00;100974.72;2093781;28;20056;-74
2023/01/20 01:20:18;;;;;;;4.45;2.58;;;;;;;16.16;100.00;100986.25;2093955;28;20041;-74
2023/01/20 01:21:42;;;;;;;4.25;2.10;;;;;;;16.14;100.00;100972.06;2093938;28;20044;-74
2023/01/20 01:23:03;;;;;;;5.57;2.17;;;;;;;16.15;100.00;100987.13;2095153;28;20067;-74
2023/01/20 01:24:25;;;;;;;4.38;2.00;;;;;;;16.14;100.00;100990.72;2100745;28;20062;-73
2023/01/20 01:25:47;;;;;;;3.78;1.73;;;;;;;16.12;100.00;100972.06;2101730;28;20394;-74
2023/01/20 01:27:09;;;;;;;3.90;1.90;;;;;;;16.14;100.00;100969.41;2101369;28;20048;-74
2023/01/20 01:28:30;;;;;;;4.30;1.80;;;;;;;16.15;100.00;100964.06;2096618;28;20048;-73
2023/01/20 01:29:52;;;;;;;5.88;2.08;;;;;;;16.18;100.00;100965.81;2094892;28;20577;-74
2023/01/20 01:31:16;;;;;;;5.97;2.03;;;;;;;16.20;100.00;100959.63;2100438;28;20892;-74
2023/01/20 01:32:37;;;;;;;10.85;2.85;;;;;;;16.18;100.00;100953.41;2104918;28;20066;-74
2023/01/20 01:34:00;;;;;;;5.70;2.53;;;;;;;16.17;100.00;100956.94;2102110;28;20040;-74
2023/01/20 01:35:21;;;;;;;7.43;2.50;;;;;;;16.16;100.00;100948.97;2100948;28;20074;-74
2023/01/20 01:36:44;;;;;;;4.55;2.13;;;;;;;16.16;100.00;100978.25;2100705;28;20432;-74
2023/01/20 01:38:06;;;;;;;4.95;2.60;;;;;;;16.16;100.00;100965.81;2102206;28;20102;-74
2023/01/20 01:39:28;;;;;;;5.95;2.78;;;;;;;16.14;100.00;100964.97;2094183;28;20052;-74
2023/01/20 01:40:50;;;;;;;3.83;1.80;;;;;;;16.14;100.00;100967.63;2088273;28;20049;-74
2023/01/20 01:42:18;;;;;;;6.75;2.67;;;;;;;16.14;100.00;100980.94;2095606;28;20044;-74
2023/01/20 01:44:04;;;;;;;4.97;2.42;;;;;;;16.11;100.00;100977.41;2100912;28;20040;-73
2023/01/20 01:45:29;;;;;;;6.60;2.03;;;;;;;16.11;100.00;100985.38;2096627;28;20426;-74
2023/01/20 01:46:51;;;;;;;4.45;1.63;;;;;;;16.11;100.00;100978.28;2101934;28;20052;-75
2023/01/20 01:48:13;;;;;;;4.95;1.80;;;;;;;16.13;100.00;100980.94;2101043;28;20048;-75
2023/01/20 01:49:35;;;;;;;6.28;2.00;;;;;;;16.12;100.00;100985.38;2093095;28;20490;-74
2023/01/20 01:51:02;;;;;;;5.03;1.70;;;;;;;16.12;100.00;100985.38;2086991;28;20098;-74
2023/01/20 01:52:27;;;;;;;6.68;2.13;;;;;;;16.09;100.00;100990.72;2099473;28;21726;-75
2023/01/20 01:53:56;;;;;;;5.47;1.67;;;;;;;16.08;100.00;100982.75;2102464;28;20059;-74
2023/01/20 01:55:20;;;;;;;4.35;1.90;;;;;;;16.10;100.00;100984.50;2085310;28;20422;-74
2023/01/20 01:56:44;;;;;;;6.47;1.73;;;;;;;16.12;100.00;100981.84;2091624;28;20049;-74
2023/01/20 01:58:11;;;;;;;3.53;1.75;;;;;;;16.14;100.00;100983.63;2101411;28;20182;-75
2023/01/20 01:59:33;;;;;;;4.43;2.00;;;;;;;16.13;100.00;100972.97;2103555;28;20048;-73
2023/01/20 02:00:55;;;;;;;4.90;2.08;;;;;;;16.09;100.00;100953.44;2094519;28;20059;-74
2023/01/20 02:02:18;;;;;;;7.65;2.22;;;;;;;16.10;100.00;100960.53;2099263;28;20131;-74
2023/01/20 02:03:52;;;;;;;4.47;1.40;;;;;;;16.15;100.00;100987.13;2101128;28;20048;-74
2023/01/20 02:05:16;;;;;;;7.03;1.88;;;;;;;16.18;100.00;100989.81;2103488;28;20161;-74
2023/01/20 02:06:41;;;;;;;4.63;1.77;;;;;;;16.23;100.00;100988.00;2101699;28;20445;-74
2023/01/20 02:08:07;;;;;;;4.03;1.85;;;;;;;16.26;100.00;100988.00;2096510;28;20064;-74
2023/01/20 02:09:30;;;;;;;3.85;1.52;;;;;;;16.25;100.00;100976.47;2097962;28;20132;-75
2023/01/20 02:10:51;;;;;;;5.35;1.95;;;;;;;16.23;100.00;100977.34;2090234;28;20091;-74
2023/01/20 02:12:18;;;;;;;4.30;1.60;;;;;;;16.17;100.00;100958.72;2095523;28;20054;-74
2023/01/20 02:13:40;;;;;;;5.55;1.90;;;;;;;16.13;100.00;100970.28;2095995;28;20052;-73
2023/01/20 02:15:03;;;;;;;4.68;2.20;;;;;;;16.10;100.00;100978.28;2098316;28;20093;-74
2023/01/20 02:16:38;;;;;;;6.38;2.47;;;;;;;16.09;100.00;100981.84;2101714;28;20097;-75
2023/01/20 02:18:32;;;;;;;4.85;2.60;;;;;;;16.06;100.00;100965.88;2097114;28;20083;-74
2023/01/20 02:20:30;;;;;;;7.20;3.67;;;;;;;16.05;100.00;100954.34;2089492;28;20052;-74
2023/01/20 02:22:15;;;;;;;6.25;3.25;;;;;;;16.05;100.00;100964.09;2093279;28;20052;-74
2023/01/20 02:24:18;;;;;;;9.63;3.97;;;;;;;16.06;100.00;100957.88;2104601;28;20044;-74
2023/01/20 02:26:16;;;;;;;6.00;2.85;;;;;;;16.06;100.00;100958.78;2088646;28;20056;-74
2023/01/20 02:28:09;;;;;;;6.75;3.22;;;;;;;16.08;100.00;100961.44;2089379;28;20095;-74
2023/01/20 02:29:56;;;;;;;5.60;2.72;;;;;;;16.09;100.00;100963.19;2097752;28;20135;-74
2023/01/20 02:31:56;;;;;;;9.18;3.60;;;;;;;16.08;100.00;100959.63;2105048;28;20048;-74
2023/01/20 02:33:27;;;;;;;10.32;3.35;;;;;;;16.11;100.00;100961.41;2084517;28;20044;-74
2023/01/20 02:34:57;;;;;;;4.72;2.15;;;;;;;16.10;100.00;100959.63;2096203;28;20037;-73
2023/01/20 02:36:29;;;;;;;5.88;2.65;;;;;;;16.07;100.00;100952.56;2095791;28;20044;-74
2023/01/20 02:37:59;;;;;;;6.07;2.23;;;;;;;16.05;100.00;100974.75;2095381;28;20429;-75
2023/01/20 02:39:27;;;;;;;2.60;1.65;;;;;;;16.00;100.00;100964.13;2090924;28;20733;-73
2023/01/20 02:40:55;;;;;;;3.33;1.85;;;;;;;16.02;100.00;100953.44;2095078;28;20052;-74
2023/01/20 02:42:23;;;;;;;4.43;1.88;;;;;;;16.04;100.00;100941.91;2096145;28;20375;-74
2023/01/20 02:43:51;;;;;;;4.45;1.80;;;;;;;16.03;100.00;100964.09;2100662;28;20044;-74
2023/01/20 02:45:22;;;;;;;4.38;1.50;;;;;;;15.99;100.00;100948.16;2097804;28;20059;-74
2023/01/20 02:46:51;;;;;;;2.60;1.70;;;;;;;15.98;100.00;100943.72;2085942;28;20091;-74
2023/01/20 02:48:21;;;;;;;5.25;1.85;;;;;;;15.98;100.00;100960.56;2086612;28;20056;-74
2023/01/20 02:49:50;;;;;;;3.03;1.23;;;;;;;15.95;100.00;100939.28;2081207;28;20443;-74
2023/01/20 02:51:18;;;;;;;2.33;1.30;;;;;;;15.94;100.00;100950.84;2087612;28;20569;-74
2023/01/20 02:52:43;;;;;;;4.88;1.50;;;;;;;15.97;100.00;100941.94;2095715;28;20041;-74
2023/01/20 02:54:09;;;;;;;5.15;1.75;;;;;;;15.96;100.00;100938.38;2091165;28;20055;-75
2023/01/20 02:55:37;;;;;;;2.83;1.60;;;;;;;15.97;100.00;100952.59;2095068;28;20037;-74
2023/01/20 02:57:03;;;;;;;7.22;1.52;;;;;;;15.94;100.00;100946.41;2095708;28;20088;-74
2023/01/20 02:58:28;;;;;;;7.07;1.50;;;;;;;15.93;100.00;100943.75;2087257;28;20272;-74
2023/01/20 02:59:56;;;;;;;4.32;1.48;;;;;;;15.91;100.00;100949.06;2093378;28;20063;-75
2023/01/20 03:01:25;;;;;;;2.30;1.25;;;;;;;15.89;100.00;100963.25;2095451;28;20505;-74
2023/01/20 03:02:49;;;;;;;4.65;1.88;;;;;;;15.89;100.00;100963.25;2096004;28;20048;-75
2023/01/20 03:04:15;;;;;;;4.15;1.60;;;;;;;15.89;100.00;100950.84;2089630;28;20110;-74
2023/01/20 03:05:43;;;;;;;3.05;1.45;;;;;;;15.90;100.00;100951.72;2086805;28;20402;-74
2023/01/20 03:07:07;;;;;;;6.55;1.42;;;;;;;15.93;100.00;100963.25;2087472;28;20048;-74
2023/01/20 03:08:32;;;;;;;5.43;1.80;;;;;;;15.93;100.00;100947.28;2086976;28;20487;-74
2023/01/20 03:09:58;;;;;;;7.40;1.40;;;;;;;15.94;100.00;100949.06;2086699;28;20154;-74
2023/01/20 03:11:20;;;;;;;3.58;1.40;;;;;;;15.93;100.00;100946.41;2085159;28;20044;-74
2023/01/20 03:12:48;;;;;;;3.13;1.40;;;;;;;15.97;100.00;100944.59;2086707;28;20057;-74
2023/01/20 03:14:13;;;;;;;3.97;1.25;;;;;;;16.03;100.00;100952.56;2078556;28;20474;-74
2023/01/20 03:15:48;;;;;;;2.88;0.98;;;;;;;16.06;100.00;100955.22;2085336;28;20045;-74
2023/01/20 03:17:11;;;;;;;5.22;1.63;;;;;;;16.08;100.00;100956.97;2091975;28;20133;-74
2023/01/20 03:18:33;;;;;;;5.03;1.30;;;;;;;16.08;100.00;100961.44;2094618;28;20139;-74
2023/01/20 03:19:56;;;;;;;2.80;0.90;;;;;;;16.07;100.00;100951.69;2088596;28;20080;-74
2023/01/20 03:21:18;;;;;;;3.38;1.50;;;;;;;16.09;100.00;100964.06;2091437;28;20036;-74
2023/01/20 03:22:41;;;;;;;3.75;1.10;;;;;;;16.08;100.00;100966.78;2093250;28;20548;-74
2023/01/20 03:24:05;;;;;;;4.05;1.13;;;;;;;16.08;100.00;100961.44;2094498;28;20359;-73
2023/01/20 03:25:27;;;;;;;5.20;1.50;;;;;;;16.08;100.00;100969.44;2093963;28;20059;-74
2023/01/20 03:26:49;;;;;;;6.38;1.70;;;;;;;16.05;100.00;100966.78;2085365;28;20057;-74
2023/01/20 03:28:11;;;;;;;3.75;1.33;;;;;;;15.99;100.00;100969.44;2091093;28;20048;-74
2023/01/20 03:29:33;;;;;;;6.03;1.92;;;;;;;15.94;100.00;100970.38;2093511;28;20131;-75
2023/01/20 03:30:58;;;;;;;6.75;2.28;;;;;;;15.92;100.00;100971.25;2086334;28;20455;-74
2023/01/20 03:32:25;;;;;;;6.68;2.47;;;;;;;15.90;100.00;100965.91;2088890;28;20041;-74
2023/01/20 03:33:49;;;;;;;5.00;2.78;;;;;;;15.90;100.00;100963.25;2086258;28;20055;-74
2023/01/20 03:35:14;;;;;;;10.00;3.22;;;;;;;15.89;100.00;100977.47;2093899;28;20052;-74
2023/01/20 03:36:40;;;;;;;10.43;3.25;;;;;;;15.86;100.00;100974.81;2093867;28;20071;-74
2023/01/20 03:38:02;;;;;;;5.93;2.90;;;;;;;15.84;100.00;100968.59;2095072;28;20056;-74
2023/01/20 03:39:25;;;;;;;4.25;2.55;;;;;;;15.86;100.00;100976.59;2089443;28;20528;-73
2023/01/20 03:40:54;;;;;;;6.72;3.00;;;;;;;15.87;100.00;100973.94;2094260;28;20044;-74
2023/01/20 03:42:25;;;;;;;6.95;3.17;;;;;;;15.85;100.00;100966.81;2086167;28;20049;-74
2023/01/20 03:43:54;;;;;;;7.30;3.47;;;;;;;15.85;100.00;100957.06;2094531;28;20528;-74
2023/01/20 03:45:22;;;;;;;4.75;2.70;;;;;;;15.86;100.00;100961.50;2094300;28;20441;-74
2023/01/20 03:46:51;;;;;;;8.18;3.22;;;;;;;15.86;100.00;100953.53;2086244;28;20044;-74
2023/01/20 03:48:20;;;;;;;6.90;3.45;;;;;;;15.85;100.00;100954.41;2093088;28;20091;-74
2023/01/20 03:49:52;;;;;;;7.75;2.45;;;;;;;15.85;100.00;100938.44;2093483;28;20052;-74
2023/01/20 03:51:20;;;;;;;3.75;2.38;;;;;;;15.85;100.00;100949.09;2086963;28;20045;-74
2023/01/20 03:52:52;;;;;;;7.93;2.30;;;;;;;15.83;100.00;100947.31;2095510;28;20769;-74
2023/01/20 03:54:22;;;;;;;7.65;2.40;;;;;;;15.84;100.00;100952.63;2098495;28;20072;-74
2023/01/20 03:55:50;;;;;;;5.53;1.90;;;;;;;15.83;100.00;100947.31;2103324;28;20044;-74
2023/01/20 03:57:17;;;;;;;9.50;2.28;;;;;;;15.84;100.00;100952.63;2095102;28;20513;-75
2023/01/20 03:58:44;;;;;;;6.50;1.40;;;;;;;15.86;100.00;100942.88;2078634;28;20042;-74
2023/01/20 04:00:09;;;;;;;3.70;1.75;;;;;;;15.86;100.00;100950.84;2072196;28;20045;-73
2023/01/20 04:01:39;;;;;;;5.70;1.90;;;;;;;15.88;100.00;100941.06;2091926;28;20647;-74
2023/01/20 04:03:04;;;;;;;4.68;1.40;;;;;;;15.90;100.00;100947.28;2095168;28;20085;-73
2023/01/20 04:04:28;;;;;;;2.13;1.30;;;;;;;15.90;100.00;100963.25;2087361;28;20056;-74
2023/01/20 04:05:50;;;;;;;3.15;1.52;;;;;;;15.91;100.00;100951.72;2092699;28;20049;-74
2023/01/20 04:07:14;;;;;;;;;;;;;;;15.89;100.00;100953.50;2086169;28;20086;-74
2023/01/20 04:08:44;;;;;;;6.70;1.67;;;;;;;15.92;100.00;100952.59;2091985;28;19928;-74
2023/01/20 04:10:14;;;;;;;5.65;1.25;;;;;;;15.91;100.00;100962.38;2079918;28;20529;-74
2023/01/20 04:11:35;;;;;;;3.03;1.40;;;;;;;15.91;100.00;100970.34;2094142;28;20064;-74
2023/01/20 04:12:58;;;;;;;4.22;1.83;;;;;;;15.89;100.00;100963.25;2088380;28;20055;-74
2023/01/20 04:14:20;;;;;;;3.78;1.13;;;;;;;15.89;100.00;100949.94;2085422;28;20041;-74
2023/01/20 04:15:44;;;;;;;4.60;1.30;;;;;;;15.89;100.00;100956.16;2091928;28;20049;-74
2023/01/20 04:17:07;;;;;;;4.30;1.38;;;;;;;15.90;100.00;100962.38;2094463;28;20052;-74
2023/01/20 04:18:29;;;;;;;6.85;1.30;;;;;;;15.91;100.00;100965.03;2085699;28;20069;-74
2023/01/20 04:19:50;;;;;;;4.05;1.20;;;;;;;15.93;100.00;100967.69;2094219;28;20467;-74
2023/01/20 04:21:20;;;;;;;7.93;1.67;;;;;;;15.94;100.00;100965.03;2085353;28;20044;-75
2023/01/20 04:22:49;;;;;;;6.90;1.35;;;;;;;15.95;100.00;100974.78;2084253;28;20053;-75
2023/01/20 04:24:21;;;;;;;5.28;1.77;;;;;;;15.94;100.00;100973.03;2086584;28;20041;-73
2023/01/20 04:25:44;;;;;;;7.03;2.10;;;;;;;15.93;100.00;100981.91;2093664;28;20095;-74
2023/01/20 04:27:06;;;;;;;7.60;1.67;;;;;;;15.93;100.00;100983.69;2093067;28;20043;-74
2023/01/20 04:28:29;;;;;;;6.85;1.80;;;;;;;15.92;100.00;100977.47;2102635;28;20471;-74
2023/01/20 04:29:51;;;;;;;4.22;1.88;;;;;;;15.89;100.00;100972.13;2102621;28;20048;-75
2023/01/20 04:31:15;;;;;;;4.35;1.60;;;;;;;15.87;100.00;100965.94;2100278;28;20056;-74
2023/01/20 04:32:36;;;;;;;6.20;1.55;;;;;;;15.86;100.00;100971.25;2101444;28;20068;-74
2023/01/20 04:33:58;;;;;;;9.13;2.33;;;;;;;15.87;100.00;100960.63;2100827;28;20143;-73
2023/01/20 04:35:20;;;;;;;5.68;2.00;;;;;;;15.87;100.00;100963.28;2100864;28;20055;-73
2023/01/20 04:36:42;;;;;;;4.60;1.55;;;;;;;15.91;100.00;100970.34;2098357;28;20044;-74
2023/01/20 04:38:05;;;;;;;4.63;2.83;;;;;;;15.95;100.00;100963.22;2105152;28;20044;-74
2023/01/20 04:39:28;;;;;;;5.68;1.95;;;;;;;15.97;100.00;100964.13;2101450;28;20309;-75
2023/01/20 04:40:50;;;;;;;5.95;1.80;;;;;;;15.99;100.00;100956.13;2102470;28;20134;-74
2023/01/20 04:42:11;;;;;;;4.60;1.73;;;;;;;16.02;100.00;100953.44;2100541;28;20060;-75
2023/01/20 04:43:34;;;;;;;4.82;1.60;;;;;;;16.01;100.00;100955.25;2102385;28;20108;-75
2023/01/20 04:44:55;;;;;;;5.47;1.85;;;;;;;16.05;100.00;100940.13;2102030;28;20044;-75
2023/01/20 04:46:17;;;;;;;4.15;1.88;;;;;;;16.07;100.00;100949.00;2101940;28;20036;-74
2023/01/20 04:47:39;;;;;;;5.13;1.67;;;;;;;16.08;100.00;100941.00;2101358;28;20059;-74
2023/01/20 04:49:00;;;;;;;5.60;1.85;;;;;;;16.11;100.00;100945.44;2102586;28;20070;-74
2023/01/20 04:50:23;;;;;;;4.53;1.77;;;;;;;16.12;100.00;100937.44;2096690;28;20064;-74
2023/01/20 04:51:46;;;;;;;4.68;2.17;;;;;;;16.12;100.00;100940.13;2099275;28;20044;-74
2023/01/20 04:53:12;;;;;;;7.35;2.22;;;;;;;16.14;100.00;100941.00;2093956;28;20056;-74
2023/01/20 04:54:36;;;;;;;5.82;1.75;;;;;;;16.15;100.00;100948.06;2094550;28;20047;-74
2023/01/20 04:55:58;;;;;;;6.18;2.00;;;;;;;16.15;100.00;100953.41;2094213;28;20040;-74
2023/01/20 04:57:21;;;;;;;5.47;2.00;;;;;;;16.17;100.00;100956.06;2094261;28;20052;-74
2023/01/20 04:58:44;;;;;;;4.18;1.60;;;;;;;16.15;100.00;100944.53;2090170;28;20053;-74
2023/01/20 05:00:07;;;;;;;3.05;1.60;;;;;;;16.16;100.00;100938.31;2101157;28;20040;-74
2023/01/20 05:01:29;;;;;;;6.85;1.95;;;;;;;16.15;100.00;100944.53;2100680;28;20048;-74
2023/01/20 05:02:50;;;;;;;3.13;2.15;;;;;;;16.15;100.00;100956.06;2094831;28;20079;-75
2023/01/20 05:04:13;;;;;;;4.82;2.10;;;;;;;16.13;100.00;100947.22;2094036;28;20465;-74
2023/01/20 05:05:34;;;;;;;6.07;2.75;;;;;;;16.12;100.00;100960.53;2094000;28;20052;-74
2023/01/20 05:06:56;;;;;;;4.57;2.13;;;;;;;16.09;100.00;100973.84;2093457;28;20421;-74
2023/01/20 05:08:18;;;;;;;6.80;2.80;;;;;;;16.06;100.00;100973.88;2093981;28;20437;-74
2023/01/20 05:09:41;;;;;;;5.22;2.28;;;;;;;16.03;100.00;100973.88;2094008;28;20056;-74
2023/01/20 05:11:04;;;;;;;5.90;2.72;;;;;;;16.04;100.00;100975.63;2095562;28;20048;-74
2023/01/20 05:12:26;;;;;;;6.18;2.60;;;;;;;16.05;100.00;100972.97;2088230;28;20049;-74
2023/01/20 05:13:48;;;;;;;7.60;3.42;;;;;;;16.05;100.00;100974.75;2092945;28;20056;-75
2023/01/20 05:15:10;;;;;;;7.18;2.83;;;;;;;16.02;100.00;100970.31;2101837;28;20390;-74
2023/01/20 05:16:32;;;;;;;8.13;3.30;;;;;;;16.01;100.00;100975.66;2102120;28;20052;-75
2023/01/20 05:17:54;;;;;;;5.93;2.60;;;;;;;15.99;100.00;100966.78;2101290;28;20205;-74
2023/01/20 05:19:16;;;;;;;5.32;2.45;;;;;;;16.03;100.00;100966.75;2101043;28;20096;-74
2023/01/20 05:20:39;;;;;;;4.85;2.47;;;;;;;16.06;100.00;100947.25;2093077;28;20414;-73
2023/01/20 05:22:00;;;;;;;7.13;2.72;;;;;;;16.08;100.00;100958.78;2099759;28;20074;-74
2023/01/20 05:23:23;;;;;;;6.95;2.42;;;;;;;16.12;100.00;100963.19;2089942;28;20176;-74
2023/01/20 05:24:47;;;;;;;4.85;2.63;;;;;;;16.17;100.00;100950.72;2088015;28;20470;-74
2023/01/20 05:26:10;;;;;;;5.55;2.53;;;;;;;16.16;100.00;100949.84;2099701;28;20070;-74
2023/01/20 05:27:35;;;;;;;7.53;2.47;;;;;;;16.18;100.00;100945.41;2102069;28;20044;-74
2023/01/20 05:28:57;;;;;;;6.63;2.53;;;;;;;16.23;100.00;100918.75;2102519;28;20052;-73
2023/01/20 05:30:19;;;;;;;6.40;2.10;;;;;;;16.22;100.00;100954.25;2100486;28;20039;-74
2023/01/20 05:31:42;;;;;;;6.90;2.78;;;;;;;16.20;100.00;100956.06;2091720;28;20514;-74
2023/01/20 05:33:03;;;;;;;6.22;2.65;;;;;;;16.22;100.00;100955.16;2097517;28;20052;-75
2023/01/20 05:34:25;;;;;;;6.30;2.30;;;;;;;16.22;100.00;100947.16;2093516;28;20142;-74
2023/01/20 05:35:47;;;;;;;8.63;2.65;;;;;;;16.22;100.00;100939.16;2096022;28;20044;-75
2023/01/20 05:37:10;;;;;;;5.93;2.30;;;;;;;16.23;100.00;100940.94;2099673;28;20047;-74
2023/01/20 05:38:32;;;;;;;9.27;2.85;;;;;;;16.21;100.00;100948.03;2100799;28;20047;-74
2023/01/20 05:39:56;;;;;;;6.60;2.20;;;;;;;16.22;100.00;100940.94;2095540;28;20123;-74
2023/01/20 05:41:17;;;;;;;4.80;2.28;;;;;;;16.24;100.00;100947.16;2098637;28;20481;-75
2023/01/20 05:42:40;;;;;;;6.25;3.03;;;;;;;16.25;100.00;100948.94;2101772;28;20048;-73
2023/01/20 05:44:02;;;;;;;5.85;2.70;;;;;;;16.27;100.00;100952.47;2102007;28;20564;-74
2023/01/20 05:45:23;;;;;;;7.88;3.38;;;;;;;16.27;100.00;100953.38;2102308;28;20117;-74
2023/01/20 05:46:46;;;;;;;9.57;3.55;;;;;;;16.26;100.00;100954.25;2087077;28;20379;-75
2023/01/20 05:48:07;;;;;;;8.52;3.72;;;;;;;16.24;100.00;100955.16;2091032;28;20556;-74
2023/01/20 05:49:30;;;;;;;7.50;2.97;;;;;;;16.23;100.00;100964.03;2101656;28;20059;-74
2023/01/20 05:50:52;;;;;;;7.97;2.10;;;;;;;16.27;100.00;100960.47;2101975;28;20153;-74
2023/01/20 05:52:14;;;;;;;6.25;3.58;;;;;;;16.31;100.00;100970.22;2106232;28;20044;-74
2023/01/20 05:53:37;;;;;;;6.60;3.10;;;;;;;16.33;100.00;100961.34;2095548;28;20448;-73
2023/01/20 05:54:59;;;;;;;6.68;2.88;;;;;;;16.37;100.00;100978.19;2094312;28;20052;-75
2023/01/20 05:56:22;;;;;;;6.85;3.22;;;;;;;16.39;100.00;100967.53;2095119;28;20040;-74
2023/01/20 05:57:44;;;;;;;9.73;3.22;;;;;;;16.39;100.00;100968.41;2095671;28;20056;-74
2023/01/20 05:59:06;;;;;;;3.90;2.42;;;;;;;16.42;100.00;100967.47;2095228;28;20040;-74
2023/01/20 06:00:29;;;;;;;6.00;3.03;;;;;;;16.45;100.00;100979.03;2097474;28;20528;-74
2023/01/20 06:01:51;;;;;;;8.15;2.90;;;;;;;16.47;100.00;100981.69;2098123;28;20052;-75
2023/01/20 06:03:13;;;;;;;8.43;2.95;;;;;;;16.47;100.00;100982.59;2094984;28;20064;-75
2023/01/20 06:04:36;;;;;;;6.68;3.00;;;;;;;16.50;100.00;100992.31;2095381;28;20127;-74
2023/01/20 06:06:01;;;;;;;4.20;2.25;;;;;;;16.55;100.00;100985.19;2095390;28;20919;-74
2023/01/20 06:07:23;;;;;;;6.75;3.08;;;;;;;16.64;100.00;100996.72;2097865;28;20533;-74
2023/01/20 06:08:46;;;;;;;6.65;3.05;;;;;;;16.76;100.00;100978.88;2104561;28;20105;-74
2023/01/20 06:10:11;;;;;;;9.48;4.13;;;;;;;16.89;100.00;100988.56;2089699;28;20068;-74
2023/01/20 06:11:33;;;;;;;11.55;3.17;;;;;;;16.98;100.00;100993.84;2100006;28;20398;-74
2023/01/20 06:12:56;;;;;;;7.43;3.50;;;;;;;17.04;100.00;100997.38;2094216;28;20076;-74
2023/01/20 06:14:18;;;;;;;6.55;3.10;;;;;;;17.08;100.00;100987.56;2100377;28;20047;-74
2023/01/20 06:15:40;;;;;;;8.18;3.30;;;;;;;17.11;100.00;101007.09;2092925;28;20075;-74
2023/01/20 06:17:03;;;;;;;7.13;2.83;;;;;;;17.17;100.00;100992.81;2099523;28;20379;-74
2023/01/20 06:18:25;;;;;;;6.93;3.13;;;;;;;17.21;100.00;101005.22;2103468;28;20106;-74
2023/01/20 06:19:47;;;;;;;5.78;2.75;;;;;;;17.27;100.00;101014.97;2095945;28;20693;-75
2023/01/20 06:21:10;;;;;;;11.68;3.85;;;;;;;17.31;100.00;101028.31;2097637;28;20052;-74
2023/01/20 06:22:32;;;;;;;6.15;3.20;;;;;;;17.40;100.00;101033.53;2096031;28;20122;-75
2023/01/20 06:23:54;;;;;;;10.23;4.30;;;;;;;17.45;100.00;101034.41;2097295;28;20045;-75
2023/01/20 06:25:18;;;;;;;9.95;5.53;;;;;;;17.47;100.00;101035.28;2097861;28;20053;-75
2023/01/20 06:26:41;;;;;;;11.85;4.88;;;;;;;17.47;100.00;101037.94;2097163;28;20465;-74
2023/01/20 06:28:03;;;;;;;8.27;4.30;;;;;;;17.45;100.00;101045.09;2091849;28;20122;-74
2023/01/20 06:29:26;;;;;;;12.95;7.57;;;;;;;17.41;100.00;101048.66;2093954;28;20109;-74